Vronskiy — C4AY2 — position and weather

sailwx.info

Track history (hours):
 
Tides and Currents Weather Stations Pressure Air Temp Water Temp Dewpoint Dewpoint Depression Visibility Wind Speed Wind Dir Waves Ship Positions

Vronskiy

Last reported at 2016-Jul-25 01:34 UTC. Time now 2016-Jul-25 06:09 UTC.
Position N 36°43' W 002°30'.

Length 131 m; draft 5.1 m.

Type: Passenger vessel. MMSI: 210030000.

Date/timePositionNaut miles runAvg speedWind from/ knotsBaromVisibWave heightAir tempDewpointWater temp
2016-Jul-25 01:34N 36°43' W 002°30'7 6.4
2016-Jul-25 00:31N 36°50' W 002°28'0 0.0
2016-Jul-24 23:31N 36°50' W 002°28'0 0.0
2016-Jul-24 22:31N 36°50' W 002°28'0 0.0
2016-Jul-24 21:31N 36°50' W 002°28'0 0.0
2016-Jul-24 20:34N 36°50' W 002°28'1212.0
2016-Jul-24 19:33N 36°38' W 002°25'4916.2
2016-Jul-24 16:31N 36°05' W 001°40'49 3.0
2016-Jul-24 00:25N 36°37' W 002°26'1011.8
2016-Jul-23 23:33N 36°47' W 002°27'3 2.6
2016-Jul-23 22:28N 36°50' W 002°28'0 0.0
2016-Jul-23 21:31N 36°50' W 002°28'0 0.0
2016-Jul-23 20:28N 36°50' W 002°28'5 5.8
2016-Jul-23 19:33N 36°45' W 002°26'1 0.0
2016-Jul-23 01:32N 36°45' W 002°27'6 5.6
2016-Jul-23 00:33N 36°50' W 002°28'0 0.0
2016-Jul-22 23:33N 36°50' W 002°28'0 0.0
2016-Jul-22 22:33N 36°50' W 002°28'0 0.0
2016-Jul-22 21:33N 36°50' W 002°28'1 0.8
2016-Jul-22 20:33N 36°49' W 002°28'  
2016-Jul-19 13:15N 35°48' W 000°38'75 6.3
2016-Jul-19 01:22N 36°14' W 002°05'  
Track history (hours):
 
Tides and Currents Weather Stations Pressure Air Temp Water Temp Dewpoint Dewpoint Depression Visibility Wind Speed Wind Dir Waves Ship Positions

Vronskiy

Last reported at 2016-Jul-25 01:34 UTC. Time now 2016-Jul-25 06:09 UTC.
Position N 36°43' W 002°30'.

Length 131 m; draft 5.1 m.

Type: Passenger vessel. MMSI: 210030000.

Date/timePositionNaut miles runAvg speedWind from/ knotsBaromVisibWave heightAir tempDewpointWater temp
2016-Jul-25 01:34N 36°43' W 002°30'7 6.4
2016-Jul-25 00:31N 36°50' W 002°28'0 0.0
2016-Jul-24 23:31N 36°50' W 002°28'0 0.0
2016-Jul-24 22:31N 36°50' W 002°28'0 0.0
2016-Jul-24 21:31N 36°50' W 002°28'0 0.0
2016-Jul-24 20:34N 36°50' W 002°28'1212.0
2016-Jul-24 19:33N 36°38' W 002°25'4916.2
2016-Jul-24 16:31N 36°05' W 001°40'49 3.0
2016-Jul-24 00:25N 36°37' W 002°26'1011.8
2016-Jul-23 23:33N 36°47' W 002°27'3 2.6
2016-Jul-23 22:28N 36°50' W 002°28'0 0.0
2016-Jul-23 21:31N 36°50' W 002°28'0 0.0
2016-Jul-23 20:28N 36°50' W 002°28'5 5.8
2016-Jul-23 19:33N 36°45' W 002°26'1 0.0
2016-Jul-23 01:32N 36°45' W 002°27'6 5.6
2016-Jul-23 00:33N 36°50' W 002°28'0 0.0
2016-Jul-22 23:33N 36°50' W 002°28'0 0.0
2016-Jul-22 22:33N 36°50' W 002°28'0 0.0
2016-Jul-22 21:33N 36°50' W 002°28'1 0.8
2016-Jul-22 20:33N 36°49' W 002°28'  
2016-Jul-19 13:15N 35°48' W 000°38'75 6.3
2016-Jul-19 01:22N 36°14' W 002°05'  

Dump ship's entire track history